sensor_id;sensor_type;location;lat;lon;timestamp;temperature;humidity
22319;DHT22;11327;52.334;9.506;2023-07-31T00:00:36;17.00;99.90
22319;DHT22;11327;52.334;9.506;2023-07-31T00:03:58;17.00;99.90
22319;DHT22;11327;52.334;9.506;2023-07-31T00:07:19;17.00;99.90
22319;DHT22;11327;52.334;9.506;2023-07-31T00:10:40;17.00;99.90
22319;DHT22;11327;52.334;9.506;2023-07-31T00:14:00;17.00;99.90
22319;DHT22;11327;52.334;9.506;2023-07-31T00:17:21;17.00;99.90
22319;DHT22;11327;52.334;9.506;2023-07-31T00:20:42;17.00;99.90
22319;DHT22;11327;52.334;9.506;2023-07-31T00:24:03;17.00;99.90
22319;DHT22;11327;52.334;9.506;2023-07-31T00:27:23;16.90;99.90
22319;DHT22;11327;52.334;9.506;2023-07-31T00:30:44;17.00;99.90
22319;DHT22;11327;52.334;9.506;2023-07-31T00:34:05;17.00;99.90
22319;DHT22;11327;52.334;9.506;2023-07-31T00:37:26;17.00;99.90
22319;DHT22;11327;52.334;9.506;2023-07-31T00:40:46;17.10;99.90
22319;DHT22;11327;52.334;9.506;2023-07-31T00:44:07;17.00;99.90
22319;DHT22;11327;52.334;9.506;2023-07-31T00:47:28;17.10;99.90
22319;DHT22;11327;52.334;9.506;2023-07-31T00:50:48;17.10;99.90
22319;DHT22;11327;52.334;9.506;2023-07-31T00:54:10;17.10;99.90
22319;DHT22;11327;52.334;9.506;2023-07-31T00:57:32;17.10;99.90
22319;DHT22;11327;52.334;9.506;2023-07-31T01:00:53;17.10;99.90
22319;DHT22;11327;52.334;9.506;2023-07-31T01:04:14;17.10;99.90
22319;DHT22;11327;52.334;9.506;2023-07-31T01:07:56;17.00;99.90
22319;DHT22;11327;52.334;9.506;2023-07-31T01:11:19;17.00;99.90
22319;DHT22;11327;52.334;9.506;2023-07-31T01:14:40;17.00;99.90
22319;DHT22;11327;52.334;9.506;2023-07-31T01:18:02;17.00;99.90
22319;DHT22;11327;52.334;9.506;2023-07-31T01:25:15;17.00;99.90
22319;DHT22;11327;52.334;9.506;2023-07-31T01:28:55;17.00;99.90
22319;DHT22;11327;52.334;9.506;2023-07-31T01:32:18;17.00;99.90
22319;DHT22;11327;52.334;9.506;2023-07-31T01:35:39;17.00;99.90
22319;DHT22;11327;52.334;9.506;2023-07-31T01:39:01;17.00;99.90
22319;DHT22;11327;52.334;9.506;2023-07-31T01:42:22;17.00;99.90
22319;DHT22;11327;52.334;9.506;2023-07-31T01:45:43;17.00;99.90
22319;DHT22;11327;52.334;9.506;2023-07-31T01:49:05;17.00;99.90
22319;DHT22;11327;52.334;9.506;2023-07-31T01:52:26;16.90;99.90
22319;DHT22;11327;52.334;9.506;2023-07-31T01:55:47;16.90;99.90
22319;DHT22;11327;52.334;9.506;2023-07-31T01:59:08;16.90;99.90
22319;DHT22;11327;52.334;9.506;2023-07-31T02:02:28;16.90;99.90
22319;DHT22;11327;52.334;9.506;2023-07-31T02:05:50;16.90;99.90
22319;DHT22;11327;52.334;9.506;2023-07-31T02:09:10;16.90;99.90
22319;DHT22;11327;52.334;9.506;2023-07-31T02:12:31;16.90;99.90
22319;DHT22;11327;52.334;9.506;2023-07-31T02:15:52;16.90;99.90
22319;DHT22;11327;52.334;9.506;2023-07-31T02:19:13;16.90;99.90
22319;DHT22;11327;52.334;9.506;2023-07-31T02:22:34;16.90;99.90
22319;DHT22;11327;52.334;9.506;2023-07-31T02:25:54;16.90;99.90
22319;DHT22;11327;52.334;9.506;2023-07-31T02:29:15;16.80;99.90
22319;DHT22;11327;52.334;9.506;2023-07-31T02:32:36;16.90;99.90
22319;DHT22;11327;52.334;9.506;2023-07-31T02:35:56;16.90;99.90
22319;DHT22;11327;52.334;9.506;2023-07-31T02:39:17;16.80;99.90
22319;DHT22;11327;52.334;9.506;2023-07-31T02:42:38;16.90;99.90
22319;DHT22;11327;52.334;9.506;2023-07-31T02:45:59;16.90;99.90
22319;DHT22;11327;52.334;9.506;2023-07-31T02:49:20;16.80;99.90
22319;DHT22;11327;52.334;9.506;2023-07-31T02:52:40;16.80;99.90
22319;DHT22;11327;52.334;9.506;2023-07-31T02:56:01;16.80;99.90
22319;DHT22;11327;52.334;9.506;2023-07-31T02:59:22;16.70;99.90
22319;DHT22;11327;52.334;9.506;2023-07-31T03:02:43;16.80;99.90
22319;DHT22;11327;52.334;9.506;2023-07-31T03:06:03;16.70;99.90
22319;DHT22;11327;52.334;9.506;2023-07-31T03:09:24;16.70;99.90
22319;DHT22;11327;52.334;9.506;2023-07-31T03:12:48;16.70;99.90
22319;DHT22;11327;52.334;9.506;2023-07-31T03:16:08;16.70;99.90
22319;DHT22;11327;52.334;9.506;2023-07-31T03:19:32;16.70;99.90
22319;DHT22;11327;52.334;9.506;2023-07-31T03:22:53;16.60;99.90
22319;DHT22;11327;52.334;9.506;2023-07-31T03:26:14;16.60;99.90
22319;DHT22;11327;52.334;9.506;2023-07-31T03:29:34;16.60;99.90
22319;DHT22;11327;52.334;9.506;2023-07-31T03:32:55;16.60;99.90
22319;DHT22;11327;52.334;9.506;2023-07-31T03:36:16;16.50;99.90
22319;DHT22;11327;52.334;9.506;2023-07-31T03:39:36;16.50;99.90
22319;DHT22;11327;52.334;9.506;2023-07-31T03:42:57;16.40;99.90
22319;DHT22;11327;52.334;9.506;2023-07-31T03:46:18;16.30;99.90
22319;DHT22;11327;52.334;9.506;2023-07-31T03:49:38;16.30;99.90
22319;DHT22;11327;52.334;9.506;2023-07-31T03:52:59;16.30;99.90
22319;DHT22;11327;52.334;9.506;2023-07-31T03:56:20;16.30;99.90
22319;DHT22;11327;52.334;9.506;2023-07-31T03:59:41;16.30;99.90
22319;DHT22;11327;52.334;9.506;2023-07-31T04:03:01;16.30;99.90
22319;DHT22;11327;52.334;9.506;2023-07-31T04:06:22;16.30;99.90
22319;DHT22;11327;52.334;9.506;2023-07-31T04:09:43;16.30;99.90
22319;DHT22;11327;52.334;9.506;2023-07-31T04:13:03;16.40;99.90
22319;DHT22;11327;52.334;9.506;2023-07-31T04:16:24;16.40;99.90
22319;DHT22;11327;52.334;9.506;2023-07-31T04:19:45;16.30;99.90
22319;DHT22;11327;52.334;9.506;2023-07-31T04:23:05;16.30;99.90
22319;DHT22;11327;52.334;9.506;2023-07-31T04:26:26;16.30;99.90
22319;DHT22;11327;52.334;9.506;2023-07-31T04:29:47;16.20;99.90
22319;DHT22;11327;52.334;9.506;2023-07-31T04:33:08;16.10;99.90
22319;DHT22;11327;52.334;9.506;2023-07-31T04:36:28;16.20;99.90
22319;DHT22;11327;52.334;9.506;2023-07-31T04:39:49;16.10;99.90
22319;DHT22;11327;52.334;9.506;2023-07-31T04:43:10;16.00;99.90
22319;DHT22;11327;52.334;9.506;2023-07-31T04:46:30;16.10;99.90
22319;DHT22;11327;52.334;9.506;2023-07-31T04:49:51;16.00;99.90
22319;DHT22;11327;52.334;9.506;2023-07-31T04:53:12;16.00;99.90
22319;DHT22;11327;52.334;9.506;2023-07-31T04:56:33;16.00;99.90
22319;DHT22;11327;52.334;9.506;2023-07-31T04:59:53;16.00;99.90
22319;DHT22;11327;52.334;9.506;2023-07-31T05:03:14;16.00;99.90
22319;DHT22;11327;52.334;9.506;2023-07-31T05:06:35;16.00;99.90
22319;DHT22;11327;52.334;9.506;2023-07-31T05:09:56;16.00;99.90
22319;DHT22;11327;52.334;9.506;2023-07-31T05:13:16;16.00;99.90
22319;DHT22;11327;52.334;9.506;2023-07-31T05:16:37;16.10;99.90
22319;DHT22;11327;52.334;9.506;2023-07-31T05:19:58;16.20;99.90
22319;DHT22;11327;52.334;9.506;2023-07-31T05:23:18;16.00;99.90
22319;DHT22;11327;52.334;9.506;2023-07-31T05:26:39;16.20;99.90
22319;DHT22;11327;52.334;9.506;2023-07-31T05:30:00;16.20;99.90
22319;DHT22;11327;52.334;9.506;2023-07-31T05:33:21;16.20;99.90
22319;DHT22;11327;52.334;9.506;2023-07-31T05:36:42;16.20;99.90
22319;DHT22;11327;52.334;9.506;2023-07-31T05:40:03;16.20;99.90
22319;DHT22;11327;52.334;9.506;2023-07-31T05:43:24;16.30;99.90
22319;DHT22;11327;52.334;9.506;2023-07-31T05:46:44;16.30;99.90
22319;DHT22;11327;52.334;9.506;2023-07-31T05:50:05;16.40;99.90
22319;DHT22;11327;52.334;9.506;2023-07-31T05:53:26;16.30;99.90
22319;DHT22;11327;52.334;9.506;2023-07-31T05:56:47;16.30;99.90
22319;DHT22;11327;52.334;9.506;2023-07-31T06:00:08;16.30;99.90
22319;DHT22;11327;52.334;9.506;2023-07-31T06:03:29;16.40;99.90
22319;DHT22;11327;52.334;9.506;2023-07-31T06:06:51;16.40;99.90
22319;DHT22;11327;52.334;9.506;2023-07-31T06:10:12;16.40;99.90
22319;DHT22;11327;52.334;9.506;2023-07-31T06:13:33;16.40;99.90
22319;DHT22;11327;52.334;9.506;2023-07-31T06:16:54;16.50;99.90
22319;DHT22;11327;52.334;9.506;2023-07-31T06:20:15;16.50;99.90
22319;DHT22;11327;52.334;9.506;2023-07-31T06:23:35;16.50;99.90
22319;DHT22;11327;52.334;9.506;2023-07-31T06:26:56;16.50;99.90
22319;DHT22;11327;52.334;9.506;2023-07-31T06:30:18;16.50;99.90
22319;DHT22;11327;52.334;9.506;2023-07-31T06:33:38;16.50;99.90
22319;DHT22;11327;52.334;9.506;2023-07-31T06:36:59;16.40;99.90
22319;DHT22;11327;52.334;9.506;2023-07-31T06:40:20;16.50;99.90
22319;DHT22;11327;52.334;9.506;2023-07-31T06:43:40;16.30;99.90
22319;DHT22;11327;52.334;9.506;2023-07-31T06:47:01;16.40;99.90
22319;DHT22;11327;52.334;9.506;2023-07-31T06:50:22;16.40;99.90
22319;DHT22;11327;52.334;9.506;2023-07-31T06:53:42;16.30;99.90
22319;DHT22;11327;52.334;9.506;2023-07-31T06:57:05;16.30;99.90
22319;DHT22;11327;52.334;9.506;2023-07-31T07:00:26;16.30;99.90
22319;DHT22;11327;52.334;9.506;2023-07-31T07:03:47;16.40;99.90
22319;DHT22;11327;52.334;9.506;2023-07-31T07:07:10;16.40;99.90
22319;DHT22;11327;52.334;9.506;2023-07-31T07:10:30;16.40;99.90
22319;DHT22;11327;52.334;9.506;2023-07-31T07:13:51;16.40;99.90
22319;DHT22;11327;52.334;9.506;2023-07-31T07:17:12;16.40;99.90
22319;DHT22;11327;52.334;9.506;2023-07-31T07:20:33;16.50;99.90
22319;DHT22;11327;52.334;9.506;2023-07-31T07:23:53;16.50;99.90
22319;DHT22;11327;52.334;9.506;2023-07-31T07:27:14;16.50;99.90
22319;DHT22;11327;52.334;9.506;2023-07-31T07:30:35;16.50;99.90
22319;DHT22;11327;52.334;9.506;2023-07-31T07:33:56;16.60;99.90
22319;DHT22;11327;52.334;9.506;2023-07-31T07:37:17;16.60;99.90
22319;DHT22;11327;52.334;9.506;2023-07-31T07:40:39;16.70;99.90
22319;DHT22;11327;52.334;9.506;2023-07-31T07:44:00;16.70;99.90
22319;DHT22;11327;52.334;9.506;2023-07-31T07:47:20;16.80;99.90
22319;DHT22;11327;52.334;9.506;2023-07-31T07:50:41;16.80;99.90
22319;DHT22;11327;52.334;9.506;2023-07-31T07:54:02;16.90;99.90
22319;DHT22;11327;52.334;9.506;2023-07-31T07:57:23;16.90;99.90
22319;DHT22;11327;52.334;9.506;2023-07-31T08:00:48;17.00;99.90
22319;DHT22;11327;52.334;9.506;2023-07-31T08:04:09;17.00;99.90
22319;DHT22;11327;52.334;9.506;2023-07-31T08:07:30;17.00;99.90
22319;DHT22;11327;52.334;9.506;2023-07-31T08:10:51;17.10;99.90
22319;DHT22;11327;52.334;9.506;2023-07-31T08:14:12;17.10;99.90
22319;DHT22;11327;52.334;9.506;2023-07-31T08:17:32;17.20;99.90
22319;DHT22;11327;52.334;9.506;2023-07-31T08:20:53;17.20;99.90
22319;DHT22;11327;52.334;9.506;2023-07-31T08:24:14;17.20;99.90
22319;DHT22;11327;52.334;9.506;2023-07-31T08:27:35;17.30;99.90
22319;DHT22;11327;52.334;9.506;2023-07-31T08:30:55;17.30;99.90
22319;DHT22;11327;52.334;9.506;2023-07-31T08:34:16;17.30;99.90
22319;DHT22;11327;52.334;9.506;2023-07-31T08:37:37;17.30;99.90
22319;DHT22;11327;52.334;9.506;2023-07-31T08:40:58;17.30;99.90
22319;DHT22;11327;52.334;9.506;2023-07-31T08:44:19;17.30;99.90
22319;DHT22;11327;52.334;9.506;2023-07-31T08:47:43;17.20;99.90
22319;DHT22;11327;52.334;9.506;2023-07-31T08:51:06;17.40;99.90
22319;DHT22;11327;52.334;9.506;2023-07-31T08:54:27;17.40;99.90
22319;DHT22;11327;52.334;9.506;2023-07-31T08:57:54;17.50;99.90
22319;DHT22;11327;52.334;9.506;2023-07-31T09:01:16;17.50;99.90
22319;DHT22;11327;52.334;9.506;2023-07-31T09:04:37;17.50;99.90
22319;DHT22;11327;52.334;9.506;2023-07-31T09:07:58;17.50;99.90
22319;DHT22;11327;52.334;9.506;2023-07-31T09:11:21;17.50;99.90
22319;DHT22;11327;52.334;9.506;2023-07-31T09:14:44;17.80;99.90
22319;DHT22;11327;52.334;9.506;2023-07-31T09:18:07;17.70;99.90
22319;DHT22;11327;52.334;9.506;2023-07-31T09:21:28;17.80;99.90
22319;DHT22;11327;52.334;9.506;2023-07-31T09:24:48;17.90;99.90
22319;DHT22;11327;52.334;9.506;2023-07-31T09:28:10;17.70;99.90
22319;DHT22;11327;52.334;9.506;2023-07-31T09:35:20;17.90;99.90
22319;DHT22;11327;52.334;9.506;2023-07-31T09:38:41;17.90;99.90
22319;DHT22;11327;52.334;9.506;2023-07-31T09:42:02;17.90;99.90
22319;DHT22;11327;52.334;9.506;2023-07-31T09:45:23;17.90;99.90
22319;DHT22;11327;52.334;9.506;2023-07-31T09:48:44;17.90;99.90
22319;DHT22;11327;52.334;9.506;2023-07-31T09:52:11;17.90;99.90
22319;DHT22;11327;52.334;9.506;2023-07-31T09:55:31;18.00;99.90
22319;DHT22;11327;52.334;9.506;2023-07-31T09:58:52;18.10;99.90
22319;DHT22;11327;52.334;9.506;2023-07-31T10:02:15;18.20;99.90
22319;DHT22;11327;52.334;9.506;2023-07-31T10:05:40;18.10;99.90
22319;DHT22;11327;52.334;9.506;2023-07-31T10:09:04;18.20;99.90
22319;DHT22;11327;52.334;9.506;2023-07-31T10:12:26;18.30;99.90
22319;DHT22;11327;52.334;9.506;2023-07-31T10:15:51;18.30;99.90
22319;DHT22;11327;52.334;9.506;2023-07-31T10:19:12;18.30;99.90
22319;DHT22;11327;52.334;9.506;2023-07-31T10:22:33;18.30;99.90
22319;DHT22;11327;52.334;9.506;2023-07-31T10:25:56;18.30;99.90
22319;DHT22;11327;52.334;9.506;2023-07-31T10:29:18;18.40;99.90
22319;DHT22;11327;52.334;9.506;2023-07-31T10:32:41;18.60;99.90
22319;DHT22;11327;52.334;9.506;2023-07-31T10:36:17;18.70;99.90
22319;DHT22;11327;52.334;9.506;2023-07-31T10:39:38;18.80;99.90
22319;DHT22;11327;52.334;9.506;2023-07-31T10:42:59;19.00;99.90
22319;DHT22;11327;52.334;9.506;2023-07-31T10:46:22;19.00;99.90
22319;DHT22;11327;52.334;9.506;2023-07-31T10:49:46;19.00;99.90
22319;DHT22;11327;52.334;9.506;2023-07-31T10:53:09;19.10;99.90
22319;DHT22;11327;52.334;9.506;2023-07-31T10:56:37;19.20;99.90
22319;DHT22;11327;52.334;9.506;2023-07-31T11:00:17;19.40;99.90
22319;DHT22;11327;52.334;9.506;2023-07-31T11:03:25;19.40;99.90
22319;DHT22;11327;52.334;9.506;2023-07-31T11:06:57;19.50;99.90
22319;DHT22;11327;52.334;9.506;2023-07-31T11:10:09;19.60;99.90
22319;DHT22;11327;52.334;9.506;2023-07-31T11:13:51;19.60;99.90
22319;DHT22;11327;52.334;9.506;2023-07-31T11:17:13;19.60;99.90
22319;DHT22;11327;52.334;9.506;2023-07-31T11:20:35;19.50;99.90
22319;DHT22;11327;52.334;9.506;2023-07-31T11:23:57;19.40;99.90
22319;DHT22;11327;52.334;9.506;2023-07-31T11:27:19;19.40;99.90
22319;DHT22;11327;52.334;9.506;2023-07-31T11:30:41;19.50;99.90
22319;DHT22;11327;52.334;9.506;2023-07-31T11:34:06;19.40;99.90
22319;DHT22;11327;52.334;9.506;2023-07-31T11:41:02;19.50;99.90
22319;DHT22;11327;52.334;9.506;2023-07-31T11:44:23;19.40;99.90
22319;DHT22;11327;52.334;9.506;2023-07-31T11:47:45;19.40;99.90
22319;DHT22;11327;52.334;9.506;2023-07-31T11:51:10;19.50;99.90
22319;DHT22;11327;52.334;9.506;2023-07-31T11:54:31;19.40;99.90
22319;DHT22;11327;52.334;9.506;2023-07-31T11:57:52;19.50;99.90
22319;DHT22;11327;52.334;9.506;2023-07-31T12:01:16;19.70;99.90
22319;DHT22;11327;52.334;9.506;2023-07-31T12:04:38;19.80;99.90
22319;DHT22;11327;52.334;9.506;2023-07-31T12:07:59;19.60;99.90
22319;DHT22;11327;52.334;9.506;2023-07-31T12:11:19;19.80;99.90
22319;DHT22;11327;52.334;9.506;2023-07-31T12:14:41;19.90;99.90
22319;DHT22;11327;52.334;9.506;2023-07-31T12:18:07;19.80;99.90
22319;DHT22;11327;52.334;9.506;2023-07-31T12:21:28;19.90;99.90
22319;DHT22;11327;52.334;9.506;2023-07-31T12:24:49;20.00;99.90
22319;DHT22;11327;52.334;9.506;2023-07-31T12:28:10;20.20;99.90
22319;DHT22;11327;52.334;9.506;2023-07-31T12:31:34;20.30;99.90
22319;DHT22;11327;52.334;9.506;2023-07-31T12:34:54;20.20;99.90
22319;DHT22;11327;52.334;9.506;2023-07-31T12:38:15;20.30;99.90
22319;DHT22;11327;52.334;9.506;2023-07-31T12:41:36;20.10;99.90
22319;DHT22;11327;52.334;9.506;2023-07-31T12:44:57;20.20;99.90
22319;DHT22;11327;52.334;9.506;2023-07-31T12:48:18;20.10;99.90
22319;DHT22;11327;52.334;9.506;2023-07-31T12:51:39;20.00;99.90
22319;DHT22;11327;52.334;9.506;2023-07-31T12:55:00;20.20;99.90
22319;DHT22;11327;52.334;9.506;2023-07-31T12:58:21;20.20;99.90
22319;DHT22;11327;52.334;9.506;2023-07-31T13:01:41;20.50;99.90
22319;DHT22;11327;52.334;9.506;2023-07-31T13:05:02;20.90;99.90
22319;DHT22;11327;52.334;9.506;2023-07-31T13:08:23;20.90;99.90
22319;DHT22;11327;52.334;9.506;2023-07-31T13:11:44;20.80;99.90
22319;DHT22;11327;52.334;9.506;2023-07-31T13:15:05;20.80;99.90
22319;DHT22;11327;52.334;9.506;2023-07-31T13:18:26;20.70;99.90
22319;DHT22;11327;52.334;9.506;2023-07-31T13:21:47;20.70;99.90
22319;DHT22;11327;52.334;9.506;2023-07-31T13:25:08;20.80;99.90
22319;DHT22;11327;52.334;9.506;2023-07-31T13:28:29;20.70;99.90
22319;DHT22;11327;52.334;9.506;2023-07-31T13:31:50;21.00;99.90
22319;DHT22;11327;52.334;9.506;2023-07-31T13:35:10;21.20;99.90
22319;DHT22;11327;52.334;9.506;2023-07-31T13:38:32;21.30;99.90
22319;DHT22;11327;52.334;9.506;2023-07-31T13:41:53;21.30;99.90
22319;DHT22;11327;52.334;9.506;2023-07-31T13:45:14;21.20;99.90
22319;DHT22;11327;52.334;9.506;2023-07-31T13:48:35;21.10;99.90
22319;DHT22;11327;52.334;9.506;2023-07-31T13:51:57;21.00;99.90
22319;DHT22;11327;52.334;9.506;2023-07-31T13:55:17;20.80;99.90
22319;DHT22;11327;52.334;9.506;2023-07-31T13:58:38;20.70;99.90
22319;DHT22;11327;52.334;9.506;2023-07-31T14:01:59;20.60;99.90
22319;DHT22;11327;52.334;9.506;2023-07-31T14:05:19;20.40;99.90
22319;DHT22;11327;52.334;9.506;2023-07-31T14:08:40;20.30;99.90
22319;DHT22;11327;52.334;9.506;2023-07-31T14:12:01;20.20;99.90
22319;DHT22;11327;52.334;9.506;2023-07-31T14:15:22;20.20;99.90
22319;DHT22;11327;52.334;9.506;2023-07-31T14:18:43;20.20;99.90
22319;DHT22;11327;52.334;9.506;2023-07-31T14:22:04;20.20;99.90
22319;DHT22;11327;52.334;9.506;2023-07-31T14:25:25;20.10;99.90
22319;DHT22;11327;52.334;9.506;2023-07-31T14:28:46;20.10;99.90
22319;DHT22;11327;52.334;9.506;2023-07-31T14:32:07;20.00;99.90
22319;DHT22;11327;52.334;9.506;2023-07-31T14:35:28;19.90;99.90
22319;DHT22;11327;52.334;9.506;2023-07-31T14:38:49;19.90;99.90
22319;DHT22;11327;52.334;9.506;2023-07-31T14:42:10;19.90;99.90
22319;DHT22;11327;52.334;9.506;2023-07-31T14:45:30;20.00;99.90
22319;DHT22;11327;52.334;9.506;2023-07-31T14:48:51;20.00;99.90
22319;DHT22;11327;52.334;9.506;2023-07-31T14:52:12;20.00;99.90
22319;DHT22;11327;52.334;9.506;2023-07-31T14:55:32;20.20;99.90
22319;DHT22;11327;52.334;9.506;2023-07-31T14:58:53;20.20;99.90
22319;DHT22;11327;52.334;9.506;2023-07-31T15:02:14;20.30;99.90
22319;DHT22;11327;52.334;9.506;2023-07-31T15:05:35;20.50;99.90
22319;DHT22;11327;52.334;9.506;2023-07-31T15:08:55;20.60;99.90
22319;DHT22;11327;52.334;9.506;2023-07-31T15:12:17;20.70;99.90
22319;DHT22;11327;52.334;9.506;2023-07-31T15:15:37;20.70;99.90
22319;DHT22;11327;52.334;9.506;2023-07-31T15:18:58;20.70;99.90
22319;DHT22;11327;52.334;9.506;2023-07-31T15:22:19;20.70;99.90
22319;DHT22;11327;52.334;9.506;2023-07-31T15:25:39;20.70;99.90
22319;DHT22;11327;52.334;9.506;2023-07-31T15:29:05;20.50;99.90
22319;DHT22;11327;52.334;9.506;2023-07-31T15:32:28;20.30;99.90
22319;DHT22;11327;52.334;9.506;2023-07-31T15:35:48;20.20;99.90
22319;DHT22;11327;52.334;9.506;2023-07-31T15:39:09;20.20;99.90
22319;DHT22;11327;52.334;9.506;2023-07-31T15:42:30;20.20;99.90
22319;DHT22;11327;52.334;9.506;2023-07-31T15:45:52;20.20;99.90
22319;DHT22;11327;52.334;9.506;2023-07-31T15:49:13;20.10;99.90
22319;DHT22;11327;52.334;9.506;2023-07-31T15:52:34;20.20;99.90
22319;DHT22;11327;52.334;9.506;2023-07-31T15:55:55;20.20;99.90
22319;DHT22;11327;52.334;9.506;2023-07-31T15:59:15;20.30;99.90
22319;DHT22;11327;52.334;9.506;2023-07-31T16:02:36;20.30;99.90
22319;DHT22;11327;52.334;9.506;2023-07-31T16:05:57;20.20;99.90
22319;DHT22;11327;52.334;9.506;2023-07-31T16:09:17;20.20;99.90
22319;DHT22;11327;52.334;9.506;2023-07-31T16:12:38;20.20;99.90
22319;DHT22;11327;52.334;9.506;2023-07-31T16:15:59;20.20;99.90
22319;DHT22;11327;52.334;9.506;2023-07-31T16:19:20;20.20;99.90
22319;DHT22;11327;52.334;9.506;2023-07-31T16:22:40;20.20;99.90
22319;DHT22;11327;52.334;9.506;2023-07-31T16:26:02;20.10;99.90
22319;DHT22;11327;52.334;9.506;2023-07-31T16:29:23;20.10;99.90
22319;DHT22;11327;52.334;9.506;2023-07-31T16:32:44;20.10;99.90
22319;DHT22;11327;52.334;9.506;2023-07-31T16:36:07;20.00;99.90
22319;DHT22;11327;52.334;9.506;2023-07-31T16:39:28;20.00;99.90
22319;DHT22;11327;52.334;9.506;2023-07-31T16:42:48;19.90;99.90
22319;DHT22;11327;52.334;9.506;2023-07-31T16:46:10;19.90;99.90
22319;DHT22;11327;52.334;9.506;2023-07-31T16:49:30;19.80;99.90
22319;DHT22;11327;52.334;9.506;2023-07-31T16:52:51;19.80;99.90
22319;DHT22;11327;52.334;9.506;2023-07-31T16:56:12;19.80;99.90
22319;DHT22;11327;52.334;9.506;2023-07-31T16:59:32;19.80;99.90
22319;DHT22;11327;52.334;9.506;2023-07-31T17:02:53;19.80;99.90
22319;DHT22;11327;52.334;9.506;2023-07-31T17:06:14;19.80;99.90
22319;DHT22;11327;52.334;9.506;2023-07-31T17:09:35;19.70;99.90
22319;DHT22;11327;52.334;9.506;2023-07-31T17:12:56;19.70;99.90
22319;DHT22;11327;52.334;9.506;2023-07-31T17:16:20;19.70;99.90
22319;DHT22;11327;52.334;9.506;2023-07-31T17:19:41;19.60;99.90
22319;DHT22;11327;52.334;9.506;2023-07-31T17:23:02;19.60;99.90
22319;DHT22;11327;52.334;9.506;2023-07-31T17:26:23;19.60;99.90
22319;DHT22;11327;52.334;9.506;2023-07-31T17:29:44;19.50;99.90
22319;DHT22;11327;52.334;9.506;2023-07-31T17:33:04;19.50;99.90
22319;DHT22;11327;52.334;9.506;2023-07-31T17:36:25;19.50;99.90
22319;DHT22;11327;52.334;9.506;2023-07-31T17:39:46;19.60;99.90
22319;DHT22;11327;52.334;9.506;2023-07-31T17:43:07;19.50;99.90
22319;DHT22;11327;52.334;9.506;2023-07-31T17:46:28;19.50;99.90
22319;DHT22;11327;52.334;9.506;2023-07-31T17:49:48;19.40;99.90
22319;DHT22;11327;52.334;9.506;2023-07-31T17:53:10;19.40;99.90
22319;DHT22;11327;52.334;9.506;2023-07-31T17:56:31;19.40;99.90
22319;DHT22;11327;52.334;9.506;2023-07-31T17:59:52;19.40;99.90
22319;DHT22;11327;52.334;9.506;2023-07-31T18:03:13;19.40;99.90
22319;DHT22;11327;52.334;9.506;2023-07-31T18:06:34;19.40;99.90
22319;DHT22;11327;52.334;9.506;2023-07-31T18:09:54;19.40;99.90
22319;DHT22;11327;52.334;9.506;2023-07-31T18:13:15;19.30;99.90
22319;DHT22;11327;52.334;9.506;2023-07-31T18:16:36;19.30;99.90
22319;DHT22;11327;52.334;9.506;2023-07-31T18:19:57;19.30;99.90
22319;DHT22;11327;52.334;9.506;2023-07-31T18:23:18;19.40;99.90
22319;DHT22;11327;52.334;9.506;2023-07-31T18:26:39;19.30;99.90
22319;DHT22;11327;52.334;9.506;2023-07-31T18:29:59;19.30;99.90
22319;DHT22;11327;52.334;9.506;2023-07-31T18:33:20;19.30;99.90
22319;DHT22;11327;52.334;9.506;2023-07-31T18:36:41;19.30;99.90
22319;DHT22;11327;52.334;9.506;2023-07-31T18:40:03;19.20;99.90
22319;DHT22;11327;52.334;9.506;2023-07-31T18:43:25;19.10;99.90
22319;DHT22;11327;52.334;9.506;2023-07-31T18:46:45;19.00;99.90
22319;DHT22;11327;52.334;9.506;2023-07-31T18:50:07;18.90;99.90
22319;DHT22;11327;52.334;9.506;2023-07-31T18:53:28;18.80;99.90
22319;DHT22;11327;52.334;9.506;2023-07-31T18:56:48;18.80;99.90
22319;DHT22;11327;52.334;9.506;2023-07-31T19:00:10;18.60;99.90
22319;DHT22;11327;52.334;9.506;2023-07-31T19:03:31;18.60;99.90
22319;DHT22;11327;52.334;9.506;2023-07-31T19:06:51;18.60;99.90
22319;DHT22;11327;52.334;9.506;2023-07-31T19:10:12;18.60;99.90
22319;DHT22;11327;52.334;9.506;2023-07-31T19:13:33;18.40;99.90
22319;DHT22;11327;52.334;9.506;2023-07-31T19:16:53;18.50;99.90
22319;DHT22;11327;52.334;9.506;2023-07-31T19:20:16;18.50;99.90
22319;DHT22;11327;52.334;9.506;2023-07-31T19:23:37;18.40;99.90
22319;DHT22;11327;52.334;9.506;2023-07-31T19:26:58;18.30;99.90
22319;DHT22;11327;52.334;9.506;2023-07-31T19:30:18;18.30;99.90
22319;DHT22;11327;52.334;9.506;2023-07-31T19:33:39;18.30;99.90
22319;DHT22;11327;52.334;9.506;2023-07-31T19:37:00;18.10;99.90
22319;DHT22;11327;52.334;9.506;2023-07-31T19:40:20;18.20;99.90
22319;DHT22;11327;52.334;9.506;2023-07-31T19:43:46;18.20;99.90
22319;DHT22;11327;52.334;9.506;2023-07-31T19:47:06;18.20;99.90
22319;DHT22;11327;52.334;9.506;2023-07-31T19:50:27;18.20;99.90
22319;DHT22;11327;52.334;9.506;2023-07-31T19:53:48;18.20;99.90
22319;DHT22;11327;52.334;9.506;2023-07-31T19:57:08;18.10;99.90
22319;DHT22;11327;52.334;9.506;2023-07-31T20:00:29;18.10;99.90
22319;DHT22;11327;52.334;9.506;2023-07-31T20:03:51;18.20;99.90
22319;DHT22;11327;52.334;9.506;2023-07-31T20:07:11;18.00;99.90
22319;DHT22;11327;52.334;9.506;2023-07-31T20:10:33;17.90;99.90
22319;DHT22;11327;52.334;9.506;2023-07-31T20:13:53;17.90;99.90
22319;DHT22;11327;52.334;9.506;2023-07-31T20:17:14;18.10;99.90
22319;DHT22;11327;52.334;9.506;2023-07-31T20:20:35;18.00;99.90
22319;DHT22;11327;52.334;9.506;2023-07-31T20:23:56;17.90;99.90
22319;DHT22;11327;52.334;9.506;2023-07-31T20:27:19;18.00;99.90
22319;DHT22;11327;52.334;9.506;2023-07-31T20:30:41;17.90;99.90
22319;DHT22;11327;52.334;9.506;2023-07-31T20:34:03;17.90;99.90
22319;DHT22;11327;52.334;9.506;2023-07-31T20:37:27;17.90;99.90
22319;DHT22;11327;52.334;9.506;2023-07-31T20:40:49;17.80;99.90
22319;DHT22;11327;52.334;9.506;2023-07-31T20:44:12;17.70;99.90
22319;DHT22;11327;52.334;9.506;2023-07-31T20:47:32;17.80;99.90
22319;DHT22;11327;52.334;9.506;2023-07-31T20:50:53;17.80;99.90
22319;DHT22;11327;52.334;9.506;2023-07-31T20:54:14;17.70;99.90
22319;DHT22;11327;52.334;9.506;2023-07-31T20:57:35;17.70;99.90
22319;DHT22;11327;52.334;9.506;2023-07-31T21:00:56;17.60;99.90
22319;DHT22;11327;52.334;9.506;2023-07-31T21:04:16;17.60;99.90
22319;DHT22;11327;52.334;9.506;2023-07-31T21:07:38;17.50;99.90
22319;DHT22;11327;52.334;9.506;2023-07-31T21:10:59;17.60;99.90
22319;DHT22;11327;52.334;9.506;2023-07-31T21:14:19;17.60;99.90
22319;DHT22;11327;52.334;9.506;2023-07-31T21:17:40;17.60;99.90
22319;DHT22;11327;52.334;9.506;2023-07-31T21:21:01;17.60;99.90